createdAt,value
2023-04-19T00:01:56.789Z,17.20
2023-04-19T00:04:31.551Z,18.40
2023-04-19T00:07:06.629Z,18.90
2023-04-19T00:09:40.915Z,27.40
2023-04-19T00:12:14.906Z,17.30
2023-04-19T00:14:49.023Z,16.70
2023-04-19T00:17:23.150Z,17.20
2023-04-19T00:19:57.821Z,14.10
2023-04-19T00:22:31.969Z,21.40
2023-04-19T00:25:06.743Z,15.20
2023-04-19T00:27:40.838Z,17.10
2023-04-19T00:30:16.929Z,16.70
2023-04-19T00:32:51.126Z,16.10
2023-04-19T00:35:25.764Z,17.40
2023-04-19T00:38:00.017Z,17.90
2023-04-19T00:40:34.529Z,15.80
2023-04-19T00:43:11.605Z,15.70
2023-04-19T00:45:45.858Z,17.40
2023-04-19T00:48:20.281Z,16.30
2023-04-19T00:50:54.464Z,16.80
2023-04-19T00:53:28.643Z,16.40
2023-04-19T00:56:07.777Z,16.70
2023-04-19T00:58:42.646Z,15.70
2023-04-19T01:01:17.133Z,17.30
2023-04-19T01:03:52.082Z,17.30
2023-04-19T01:06:30.034Z,15.20
2023-04-19T01:09:04.662Z,14.30
2023-04-19T01:11:39.884Z,13.80
2023-04-19T01:14:15.968Z,14.10
2023-04-19T01:16:54.325Z,13.30
2023-04-19T01:19:28.551Z,18.60
2023-04-19T01:22:03.257Z,17.70
2023-04-19T01:24:37.481Z,15.10
2023-04-19T01:27:11.551Z,14.70
2023-04-19T01:29:46.207Z,13.50
2023-04-19T01:32:20.532Z,14.20
2023-04-19T01:34:56.765Z,17.30
2023-04-19T01:37:30.866Z,14.40
2023-04-19T01:40:05.756Z,13.80
2023-04-19T01:42:39.851Z,15.00
2023-04-19T01:45:14.844Z,13.20
2023-04-19T01:47:49.224Z,12.10
2023-04-19T01:50:23.645Z,17.20
2023-04-19T01:52:57.866Z,13.70
2023-04-19T01:55:33.857Z,13.00
2023-04-19T01:58:08.420Z,12.60
2023-04-19T02:00:42.745Z,13.00
2023-04-19T02:03:17.064Z,14.40
2023-04-19T02:05:51.380Z,11.40
2023-04-19T02:08:27.948Z,12.30
2023-04-19T02:11:01.977Z,12.30
2023-04-19T02:13:36.279Z,11.60
2023-04-19T02:16:14.768Z,8.80
2023-04-19T02:18:50.856Z,10.40
2023-04-19T02:21:26.116Z,11.10
2023-04-19T02:24:00.162Z,11.20
2023-04-19T02:26:34.596Z,9.70
2023-04-19T02:29:09.519Z,9.60
2023-04-19T02:31:46.577Z,9.80
2023-04-19T02:34:21.128Z,8.40
2023-04-19T02:36:55.348Z,10.20
2023-04-19T02:39:29.618Z,7.70
2023-04-19T02:42:03.880Z,8.00
2023-04-19T02:44:38.039Z,7.70
2023-04-19T02:47:12.122Z,7.50
2023-04-19T02:49:46.360Z,8.60
2023-04-19T02:52:20.785Z,8.10
2023-04-19T02:54:55.008Z,7.90
2023-04-19T02:57:31.884Z,8.90
2023-04-19T03:00:08.903Z,8.70
2023-04-19T03:02:45.006Z,8.20
2023-04-19T03:05:19.578Z,10.40
2023-04-19T03:07:54.351Z,6.50
2023-04-19T03:10:29.108Z,7.50
2023-04-19T03:13:03.195Z,8.40
2023-04-19T03:15:37.634Z,7.80
2023-04-19T03:18:12.152Z,8.50
2023-04-19T03:20:48.367Z,7.60
2023-04-19T03:23:22.836Z,8.30
2023-04-19T03:25:57.702Z,9.00
2023-04-19T03:28:38.969Z,8.60
2023-04-19T03:31:30.418Z,10.50
2023-04-19T03:34:05.954Z,7.00
2023-04-19T03:36:45.962Z,9.20
2023-04-19T03:39:20.142Z,7.20
2023-04-19T03:41:56.890Z,10.90
2023-04-19T03:44:43.059Z,8.00
2023-04-19T03:47:17.849Z,8.30
2023-04-19T03:49:54.175Z,6.80
2023-04-19T03:52:28.540Z,7.00
2023-04-19T03:55:02.892Z,7.00
2023-04-19T03:57:45.976Z,7.10
2023-04-19T04:00:39.325Z,9.90
2023-04-19T04:03:14.164Z,8.20
2023-04-19T04:05:49.686Z,7.60
2023-04-19T04:08:24.043Z,9.40
2023-04-19T04:10:58.926Z,7.20
2023-04-19T04:13:33.301Z,8.30
2023-04-19T04:16:16.662Z,8.10
2023-04-19T04:18:51.573Z,9.10
2023-04-19T04:21:27.387Z,9.20
2023-04-19T04:24:03.825Z,8.50
2023-04-19T04:26:44.306Z,7.10
2023-04-19T04:29:33.853Z,7.00
2023-04-19T04:32:11.598Z,9.80
2023-04-19T04:34:48.260Z,8.80
2023-04-19T04:37:28.337Z,10.20
2023-04-19T04:40:03.504Z,8.50
2023-04-19T04:42:39.269Z,10.10
2023-04-19T04:45:18.183Z,8.70
2023-04-19T04:47:53.146Z,8.70
2023-04-19T04:50:27.396Z,8.50
2023-04-19T04:53:01.486Z,8.70
2023-04-19T04:55:38.812Z,9.40
2023-04-19T04:58:13.223Z,7.60
2023-04-19T05:01:01.436Z,8.00
2023-04-19T05:03:36.276Z,8.40
2023-04-19T05:06:12.261Z,8.60
2023-04-19T05:08:47.249Z,7.70
2023-04-19T05:11:30.047Z,10.00
2023-04-19T05:14:04.481Z,9.60
2023-04-19T05:16:41.013Z,10.60
2023-04-19T05:19:15.384Z,8.20
2023-04-19T05:21:53.382Z,10.40
2023-04-19T05:24:27.631Z,7.90
2023-04-19T05:27:02.385Z,11.50
2023-04-19T05:29:37.926Z,7.90
2023-04-19T05:32:12.950Z,10.10
2023-04-19T05:34:55.430Z,7.40
2023-04-19T05:37:30.753Z,8.00
2023-04-19T05:40:09.582Z,11.70
2023-04-19T05:42:43.973Z,7.60
2023-04-19T05:45:19.806Z,8.50
2023-04-19T05:47:54.366Z,12.10
2023-04-19T05:50:31.406Z,9.20
2023-04-19T05:53:31.968Z,10.50
2023-04-19T05:56:06.958Z,8.40
2023-04-19T05:58:41.510Z,8.60
2023-04-19T06:01:16.683Z,10.00
2023-04-19T06:03:53.758Z,7.90
2023-04-19T06:06:29.262Z,5.30
2023-04-19T06:09:04.045Z,6.50
2023-04-19T06:11:50.017Z,7.80
2023-04-19T06:14:25.638Z,8.50
2023-04-19T06:17:01.035Z,10.80
2023-04-19T06:19:39.428Z,10.90
2023-04-19T06:22:13.669Z,7.00
2023-04-19T06:24:49.273Z,9.80
2023-04-19T06:27:23.663Z,6.80
2023-04-19T06:29:57.855Z,11.70
2023-04-19T06:32:34.477Z,11.90
2023-04-19T06:35:11.107Z,7.30
2023-04-19T06:37:45.281Z,8.10
2023-04-19T06:40:19.669Z,9.40
2023-04-19T06:42:54.158Z,9.50
2023-04-19T06:45:28.356Z,8.20
2023-04-19T06:48:02.837Z,9.30
2023-04-19T06:50:37.802Z,10.40
2023-04-19T06:53:13.118Z,7.90
2023-04-19T06:55:59.206Z,10.00
2023-04-19T06:58:35.229Z,13.60
2023-04-19T07:01:10.303Z,11.40
2023-04-19T07:03:47.362Z,11.90
2023-04-19T07:06:22.633Z,16.90
2023-04-19T07:08:57.274Z,15.10
2023-04-19T07:11:32.278Z,11.40
2023-04-19T07:14:07.342Z,12.90
2023-04-19T07:16:42.794Z,9.20
2023-04-19T07:19:19.356Z,9.30
2023-04-19T07:21:54.341Z,8.90
2023-04-19T07:24:30.459Z,7.20
2023-04-19T07:27:05.018Z,9.00
2023-04-19T07:29:43.623Z,8.80
2023-04-19T07:32:19.806Z,9.40
2023-04-19T07:34:54.754Z,9.10
2023-04-19T07:37:32.465Z,7.70
2023-04-19T07:40:09.489Z,9.30
2023-04-19T07:42:44.911Z,7.10
2023-04-19T07:45:20.293Z,10.60
2023-04-19T07:47:57.255Z,10.80
2023-04-19T07:50:33.570Z,9.50
2023-04-19T07:53:08.145Z,11.80
2023-04-19T07:55:44.548Z,9.30
2023-04-19T07:58:18.985Z,11.20
2023-04-19T08:00:53.809Z,8.00
2023-04-19T08:03:28.437Z,12.00
2023-04-19T08:06:07.659Z,9.30
2023-04-19T08:08:42.908Z,10.50
2023-04-19T08:11:17.488Z,9.70
2023-04-19T08:14:06.169Z,14.60
2023-04-19T08:19:24.929Z,14.40
2023-04-19T08:21:59.882Z,15.10
2023-04-19T08:24:34.394Z,13.90
2023-04-19T08:27:09.125Z,10.90
2023-04-19T08:29:44.610Z,8.90
2023-04-19T08:32:19.706Z,10.00
2023-04-19T08:34:54.178Z,8.60
2023-04-19T08:37:28.842Z,12.50
2023-04-19T08:40:04.068Z,8.90
2023-04-19T08:42:38.576Z,9.50
2023-04-19T08:48:00.870Z,12.90
2023-04-19T08:50:48.507Z,9.50
2023-04-19T08:53:34.582Z,16.00
2023-04-19T08:56:21.184Z,13.30
2023-04-19T08:59:15.209Z,13.50
2023-04-19T09:01:52.708Z,11.00
2023-04-19T09:04:37.054Z,10.60
2023-04-19T09:07:26.177Z,9.60
2023-04-19T09:10:15.082Z,9.70
2023-04-19T09:13:05.836Z,10.00
2023-04-19T09:15:46.401Z,10.80
2023-04-19T09:18:21.289Z,12.00
2023-04-19T09:20:57.520Z,13.20
2023-04-19T09:23:32.273Z,9.90
2023-04-19T09:26:23.042Z,10.50
2023-04-19T09:29:10.787Z,12.90
2023-04-19T09:32:01.914Z,11.10
2023-04-19T09:34:36.450Z,8.90
2023-04-19T09:37:34.981Z,14.50
2023-04-19T09:40:28.491Z,10.70
2023-04-19T09:43:22.936Z,12.10
2023-04-19T09:45:58.501Z,12.70
2023-04-19T09:48:33.443Z,13.80
2023-04-19T09:51:11.852Z,11.70
2023-04-19T09:53:49.991Z,14.70
2023-04-19T09:56:24.948Z,11.20
2023-04-19T10:01:39.856Z,11.20
2023-04-19T10:04:36.322Z,13.10
2023-04-19T10:07:30.343Z,12.20
2023-04-19T10:10:19.531Z,11.60
2023-04-19T10:15:51.074Z,14.40
2023-04-19T10:18:29.052Z,10.80
2023-04-19T10:21:09.932Z,12.90
2023-04-19T10:23:44.725Z,14.00
2023-04-19T10:26:19.247Z,15.30
2023-04-19T10:28:56.433Z,11.30
2023-04-19T10:31:33.485Z,13.10
2023-04-19T10:34:14.267Z,13.10
2023-04-19T10:36:51.331Z,13.60
2023-04-19T10:39:46.355Z,14.90
2023-04-19T10:42:21.607Z,12.10
2023-04-19T10:45:39.899Z,14.20
2023-04-19T10:48:55.062Z,15.10
2023-04-19T10:51:35.905Z,10.10
2023-04-19T10:54:28.706Z,13.40
2023-04-19T10:57:06.171Z,15.40
2023-04-19T10:59:44.041Z,17.30
2023-04-19T11:02:34.212Z,15.60
2023-04-19T11:05:11.638Z,14.60
2023-04-19T11:07:47.227Z,15.40
2023-04-19T11:10:33.176Z,15.00
2023-04-19T11:13:08.909Z,11.00
2023-04-19T11:15:53.054Z,13.70
2023-04-19T11:18:38.100Z,10.80
2023-04-19T11:21:19.273Z,15.80
2023-04-19T11:24:11.693Z,15.10
2023-04-19T11:26:49.530Z,16.20
2023-04-19T11:29:24.355Z,12.30
2023-04-19T11:32:06.859Z,14.30
2023-04-19T11:34:43.966Z,13.20
2023-04-19T11:37:25.096Z,12.20
2023-04-19T11:40:06.083Z,13.50
2023-04-19T11:43:20.709Z,15.10
2023-04-19T11:46:15.951Z,16.10
2023-04-19T11:49:07.792Z,13.10
2023-04-19T11:51:46.576Z,11.50
2023-04-19T11:54:24.669Z,12.30
2023-04-19T11:57:10.928Z,11.80
2023-04-19T12:00:11.769Z,14.80
2023-04-19T12:02:49.935Z,13.40
2023-04-19T12:05:25.191Z,12.20
2023-04-19T12:08:08.565Z,11.30
2023-04-19T12:11:03.493Z,13.20
2023-04-19T12:13:40.827Z,15.10
2023-04-19T12:16:15.838Z,12.30
2023-04-19T12:18:52.682Z,9.90
2023-04-19T12:21:33.351Z,10.80
2023-04-19T12:24:08.444Z,9.00
2023-04-19T12:26:58.969Z,10.90
2023-04-19T12:29:37.681Z,9.00
2023-04-19T12:32:16.010Z,9.80
2023-04-19T12:34:50.607Z,9.90
2023-04-19T12:37:24.947Z,10.20
2023-04-19T12:39:59.299Z,9.60
2023-04-19T12:42:33.995Z,9.80
2023-04-19T12:45:11.599Z,8.90
2023-04-19T12:47:48.808Z,13.10
2023-04-19T12:50:24.818Z,20.10
2023-04-19T12:52:59.879Z,13.00
2023-04-19T12:55:34.746Z,10.80
2023-04-19T12:58:09.041Z,9.30
2023-04-19T13:00:44.221Z,6.70
2023-04-19T13:03:18.739Z,8.30
2023-04-19T13:05:53.363Z,9.00
2023-04-19T13:08:43.331Z,7.50
2023-04-19T13:11:23.593Z,9.40
2023-04-19T13:13:59.878Z,8.50
2023-04-19T13:16:34.412Z,11.10
2023-04-19T13:19:10.166Z,8.80
2023-04-19T13:21:48.753Z,8.60
2023-04-19T13:24:23.211Z,8.50
2023-04-19T13:26:58.306Z,7.00
2023-04-19T13:29:32.620Z,6.80
2023-04-19T13:32:12.613Z,8.10
2023-04-19T13:34:47.862Z,9.40
2023-04-19T13:37:22.378Z,9.70
2023-04-19T13:40:04.266Z,8.00
2023-04-19T13:42:45.291Z,8.10
2023-04-19T13:45:19.607Z,7.40
2023-04-19T13:47:54.005Z,11.00
2023-04-19T13:50:28.418Z,7.80
2023-04-19T13:53:02.763Z,10.30
2023-04-19T13:55:37.504Z,7.80
2023-04-19T13:58:11.775Z,7.20
2023-04-19T14:00:48.341Z,5.70
2023-04-19T14:03:52.294Z,7.00
2023-04-19T14:06:36.833Z,6.60
2023-04-19T14:09:11.290Z,6.80
2023-04-19T14:11:45.652Z,6.00
2023-04-19T14:14:20.215Z,7.00
2023-04-19T14:16:54.497Z,5.90
2023-04-19T14:19:28.996Z,6.50
2023-04-19T14:22:03.349Z,7.20
2023-04-19T14:24:37.816Z,6.50
2023-04-19T14:27:12.316Z,6.40
2023-04-19T14:29:46.717Z,8.10
2023-04-19T14:32:26.388Z,7.10
2023-04-19T14:35:02.006Z,6.10
2023-04-19T14:37:36.489Z,8.00
2023-04-19T14:40:14.074Z,6.80
2023-04-19T14:42:48.439Z,6.60
2023-04-19T14:45:22.676Z,7.20
2023-04-19T14:47:56.975Z,6.70
2023-04-19T14:50:31.422Z,6.90
2023-04-19T14:53:05.693Z,6.80
2023-04-19T14:55:41.851Z,6.20
2023-04-19T14:58:16.186Z,6.10
2023-04-19T15:00:50.750Z,6.90
2023-04-19T15:03:26.058Z,8.50
2023-04-19T15:06:00.875Z,8.30
2023-04-19T15:08:35.061Z,9.00
2023-04-19T15:11:09.751Z,9.30
2023-04-19T15:13:45.312Z,8.20
2023-04-19T15:16:19.635Z,8.40
2023-04-19T15:18:54.722Z,10.30
2023-04-19T15:21:29.076Z,9.10
2023-04-19T15:24:04.892Z,8.30
2023-04-19T15:26:42.802Z,10.60
2023-04-19T15:29:18.835Z,8.40
2023-04-19T15:31:53.464Z,6.60
2023-04-19T15:34:27.773Z,7.50
2023-04-19T15:37:06.053Z,8.40
2023-04-19T15:39:40.390Z,7.90
2023-04-19T15:42:14.608Z,7.30
2023-04-19T15:44:48.730Z,7.60
2023-04-19T15:47:23.185Z,8.10
2023-04-19T15:49:57.502Z,8.70
2023-04-19T15:52:31.984Z,8.10
2023-04-19T15:55:07.106Z,9.50
2023-04-19T15:57:41.420Z,9.40
2023-04-19T16:00:17.867Z,7.50
2023-04-19T16:02:52.197Z,7.80
2023-04-19T16:05:27.030Z,10.40
2023-04-19T16:08:09.491Z,8.50
2023-04-19T16:10:44.904Z,8.00
2023-04-19T16:13:21.558Z,7.30
2023-04-19T16:15:55.953Z,8.00
2023-04-19T16:18:30.493Z,7.70
2023-04-19T16:21:05.715Z,7.10
2023-04-19T16:23:39.997Z,8.70
2023-04-19T16:26:14.186Z,7.90
2023-04-19T16:28:48.724Z,8.30
2023-04-19T16:31:23.503Z,9.50
2023-04-19T16:33:57.827Z,6.60
2023-04-19T16:36:32.529Z,7.50
2023-04-19T16:39:07.261Z,8.80
2023-04-19T16:41:42.131Z,8.70
2023-04-19T16:44:16.356Z,9.00
2023-04-19T16:46:53.329Z,7.70
2023-04-19T16:49:27.546Z,7.50
2023-04-19T16:52:01.897Z,7.60
2023-04-19T16:54:36.271Z,7.00
2023-04-19T16:57:10.821Z,7.60
2023-04-19T16:59:46.301Z,7.30
2023-04-19T17:02:20.950Z,6.60
2023-04-19T17:04:57.410Z,6.50
2023-04-19T17:07:31.750Z,6.70
2023-04-19T17:10:06.356Z,7.40
2023-04-19T17:12:40.618Z,8.30
2023-04-19T17:16:13.937Z,6.40
2023-04-19T17:18:48.284Z,7.40
2023-04-19T17:21:22.513Z,8.90
2023-04-19T17:23:56.848Z,9.00
2023-04-19T17:26:32.275Z,7.90
2023-04-19T17:29:10.705Z,7.50
2023-04-19T17:31:47.325Z,7.20
2023-04-19T17:34:24.335Z,7.80
2023-04-19T17:37:04.074Z,6.70
2023-04-19T17:39:41.273Z,10.30
2023-04-19T17:42:18.402Z,9.70
2023-04-19T17:44:54.275Z,8.10
2023-04-19T17:47:30.362Z,8.30
2023-04-19T17:50:14.303Z,8.30
2023-04-19T17:52:50.265Z,9.20
2023-04-19T17:55:27.311Z,8.90
2023-04-19T17:58:02.985Z,8.20
2023-04-19T18:00:39.319Z,8.20
2023-04-19T18:03:16.495Z,9.60
2023-04-19T18:05:53.280Z,9.60
2023-04-19T18:08:30.933Z,8.80
2023-04-19T18:11:05.593Z,9.70
2023-04-19T18:13:42.419Z,10.10
2023-04-19T18:18:38.462Z,10.30
2023-04-19T18:21:09.285Z,11.90
2023-04-19T18:23:39.551Z,9.50
2023-04-19T18:26:10.215Z,13.80
2023-04-19T18:28:41.053Z,11.20
2023-04-19T18:31:11.414Z,11.90
2023-04-19T18:33:41.633Z,11.80
2023-04-19T18:36:12.029Z,10.20
2023-04-19T18:38:42.286Z,13.50
2023-04-19T18:41:12.519Z,13.90
2023-04-19T18:43:50.659Z,10.30
2023-04-19T18:46:29.935Z,13.70
2023-04-19T18:49:00.523Z,14.20
2023-04-19T18:51:30.808Z,16.60
2023-04-19T18:54:01.220Z,15.20
2023-04-19T18:57:18.621Z,12.20
2023-04-19T18:59:30.477Z,11.30
2023-04-19T19:02:00.821Z,12.70
2023-04-19T19:04:43.285Z,12.20
2023-04-19T19:10:01.277Z,12.80
2023-04-19T19:12:32.824Z,14.10
2023-04-19T19:15:04.424Z,10.60
2023-04-19T19:17:35.022Z,10.30
2023-04-19T19:20:08.241Z,11.60
2023-04-19T19:22:38.517Z,12.40
2023-04-19T19:25:10.590Z,12.10
2023-04-19T19:27:49.840Z,12.40
2023-04-19T19:30:33.237Z,13.70
2023-04-19T19:33:04.204Z,13.70
2023-04-19T19:35:34.761Z,15.40
2023-04-19T19:38:05.180Z,11.70
2023-04-19T19:40:35.470Z,14.60
2023-04-19T19:43:05.980Z,12.40
2023-04-19T19:45:39.724Z,14.80
2023-04-19T19:48:10.305Z,12.50
2023-04-19T19:53:14.536Z,12.40
2023-04-19T19:55:45.439Z,13.00
2023-04-19T19:58:42.821Z,13.10
2023-04-19T20:01:06.419Z,14.00
2023-04-19T20:03:38.047Z,14.40
2023-04-19T20:08:44.748Z,18.40
2023-04-19T20:11:15.483Z,16.30
2023-04-19T20:13:45.810Z,19.30
2023-04-19T20:16:18.214Z,19.50
2023-04-19T20:18:49.339Z,19.70
2023-04-19T20:21:20.393Z,18.60
2023-04-19T20:23:51.819Z,20.40
2023-04-19T20:26:22.158Z,22.40
2023-04-19T20:28:52.383Z,18.60
2023-04-19T20:31:24.011Z,19.00
2023-04-19T20:33:55.786Z,21.60
2023-04-19T20:36:27.370Z,20.10
2023-04-19T20:38:58.487Z,19.00
2023-04-19T20:41:28.856Z,16.90
2023-04-19T20:43:59.332Z,20.60
2023-04-19T20:46:30.354Z,23.40
2023-04-19T20:49:01.383Z,21.20
2023-04-19T20:51:33.756Z,21.20
2023-04-19T20:54:04.172Z,18.80
2023-04-19T20:56:35.095Z,18.70
2023-04-19T20:59:05.750Z,20.00
2023-04-19T21:01:36.151Z,21.60
2023-04-19T21:04:08.123Z,22.10
2023-04-19T21:06:38.613Z,20.30
2023-04-19T21:09:09.129Z,20.30
2023-04-19T21:11:39.299Z,19.90
2023-04-19T21:14:09.551Z,19.50
2023-04-19T21:16:39.854Z,20.10
2023-04-19T21:19:10.185Z,24.70
2023-04-19T21:21:40.709Z,27.20
2023-04-19T21:24:11.049Z,26.90
2023-04-19T21:26:41.473Z,27.80
2023-04-19T21:29:11.687Z,30.80
2023-04-19T21:31:42.096Z,29.10
2023-04-19T21:34:12.377Z,35.50
2023-04-19T21:36:42.710Z,29.60
2023-04-19T21:39:12.969Z,29.30
2023-04-19T21:41:43.924Z,28.20
2023-04-19T21:44:14.284Z,33.00
2023-04-19T21:46:45.499Z,32.20
2023-04-19T21:49:15.909Z,34.20
2023-04-19T21:51:46.325Z,31.70
2023-04-19T21:54:26.611Z,34.50
2023-04-19T21:57:01.512Z,30.00
2023-04-19T21:59:34.344Z,30.80
2023-04-19T22:02:04.957Z,30.10
2023-04-19T22:04:36.155Z,33.10
2023-04-19T22:07:07.080Z,31.20
2023-04-19T22:09:37.381Z,29.30
2023-04-19T22:12:11.031Z,28.00
2023-04-19T22:14:41.520Z,24.60
2023-04-19T22:17:11.934Z,31.20
2023-04-19T22:19:42.123Z,27.20
2023-04-19T22:22:12.619Z,30.30
2023-04-19T22:24:56.251Z,32.10
2023-04-19T22:27:27.718Z,29.60
2023-04-19T22:29:58.025Z,33.20
2023-04-19T22:32:28.437Z,30.00
2023-04-19T22:34:58.764Z,29.30
2023-04-19T22:37:29.126Z,29.10
2023-04-19T22:39:59.504Z,30.90
2023-04-19T22:42:29.656Z,28.60
2023-04-19T22:44:59.716Z,29.60
2023-04-19T22:47:30.457Z,23.90
2023-04-19T22:50:00.542Z,23.80
2023-04-19T22:52:30.726Z,21.10
2023-04-19T22:55:00.835Z,24.80
2023-04-19T22:57:30.999Z,24.10
2023-04-19T23:00:01.069Z,26.80
2023-04-19T23:02:31.308Z,24.40
2023-04-19T23:05:01.608Z,23.50
2023-04-19T23:07:31.865Z,21.20
2023-04-19T23:10:03.165Z,20.00
2023-04-19T23:12:33.843Z,21.00
2023-04-19T23:15:04.897Z,18.50
2023-04-19T23:17:35.497Z,20.80
2023-04-19T23:20:10.137Z,17.80
2023-04-19T23:22:40.504Z,20.60
2023-04-19T23:25:11.602Z,21.20
2023-04-19T23:27:41.648Z,18.50
2023-04-19T23:30:13.392Z,17.20
2023-04-19T23:32:43.663Z,17.30
2023-04-19T23:35:13.954Z,16.40
2023-04-19T23:37:44.036Z,15.60
2023-04-19T23:40:14.721Z,15.90
2023-04-19T23:42:44.856Z,17.60
2023-04-19T23:45:14.908Z,18.30
2023-04-19T23:47:45.171Z,17.30
2023-04-19T23:50:15.415Z,14.80
2023-04-19T23:52:45.534Z,18.50
2023-04-19T23:55:15.919Z,18.80
2023-04-19T23:57:45.921Z,19.70
